sensor_id;sensor_type;location;lat;lon;timestamp;P1;durP1;ratioP1;P2;durP2;ratioP2
13432;SDS011;6789;47.678;9.158;2023-07-29T00:03:39;5.88;;;3.85;;
13432;SDS011;6789;47.678;9.158;2023-07-29T00:08:33;3.65;;;3.17;;
13432;SDS011;6789;47.678;9.158;2023-07-29T00:13:24;5.07;;;2.90;;
13432;SDS011;6789;47.678;9.158;2023-07-29T00:18:16;4.32;;;3.40;;
13432;SDS011;6789;47.678;9.158;2023-07-29T00:23:08;3.90;;;3.08;;
13432;SDS011;6789;47.678;9.158;2023-07-29T00:28:00;3.00;;;2.67;;
13432;SDS011;6789;47.678;9.158;2023-07-29T00:32:52;4.28;;;2.90;;
13432;SDS011;6789;47.678;9.158;2023-07-29T00:37:44;4.00;;;2.63;;
13432;SDS011;6789;47.678;9.158;2023-07-29T00:42:35;4.72;;;3.03;;
13432;SDS011;6789;47.678;9.158;2023-07-29T00:47:27;5.97;;;2.75;;
13432;SDS011;6789;47.678;9.158;2023-07-29T00:52:19;3.50;;;2.80;;
13432;SDS011;6789;47.678;9.158;2023-07-29T00:57:11;4.85;;;3.10;;
13432;SDS011;6789;47.678;9.158;2023-07-29T01:02:07;3.10;;;2.75;;
13432;SDS011;6789;47.678;9.158;2023-07-29T01:18:04;3.67;;;2.70;;
13432;SDS011;6789;47.678;9.158;2023-07-29T01:23:02;3.47;;;3.10;;
13432;SDS011;6789;47.678;9.158;2023-07-29T01:27:54;3.65;;;3.13;;
13432;SDS011;6789;47.678;9.158;2023-07-29T01:32:54;3.50;;;3.13;;
13432;SDS011;6789;47.678;9.158;2023-07-29T01:38:05;5.40;;;3.47;;
13432;SDS011;6789;47.678;9.158;2023-07-29T01:43:04;5.18;;;3.45;;
13432;SDS011;6789;47.678;9.158;2023-07-29T01:47:58;4.78;;;3.50;;
13432;SDS011;6789;47.678;9.158;2023-07-29T01:52:50;4.18;;;3.08;;
13432;SDS011;6789;47.678;9.158;2023-07-29T01:57:42;5.60;;;3.88;;
13432;SDS011;6789;47.678;9.158;2023-07-29T02:02:36;7.90;;;4.03;;
13432;SDS011;6789;47.678;9.158;2023-07-29T02:07:28;6.15;;;4.20;;
13432;SDS011;6789;47.678;9.158;2023-07-29T02:12:20;7.78;;;4.97;;
13432;SDS011;6789;47.678;9.158;2023-07-29T02:17:12;6.80;;;5.43;;
13432;SDS011;6789;47.678;9.158;2023-07-29T02:22:03;9.23;;;6.88;;
13432;SDS011;6789;47.678;9.158;2023-07-29T02:26:55;12.10;;;9.35;;
13432;SDS011;6789;47.678;9.158;2023-07-29T02:31:47;12.45;;;9.43;;
13432;SDS011;6789;47.678;9.158;2023-07-29T02:36:39;13.73;;;9.48;;
13432;SDS011;6789;47.678;9.158;2023-07-29T02:41:30;22.33;;;14.23;;
13432;SDS011;6789;47.678;9.158;2023-07-29T02:46:22;17.05;;;10.73;;
13432;SDS011;6789;47.678;9.158;2023-07-29T02:51:14;15.85;;;10.48;;
13432;SDS011;6789;47.678;9.158;2023-07-29T02:56:06;11.70;;;8.55;;
13432;SDS011;6789;47.678;9.158;2023-07-29T03:01:00;10.07;;;6.65;;
13432;SDS011;6789;47.678;9.158;2023-07-29T03:05:58;11.00;;;7.53;;
13432;SDS011;6789;47.678;9.158;2023-07-29T03:10:58;9.25;;;5.93;;
13432;SDS011;6789;47.678;9.158;2023-07-29T03:16:04;5.65;;;4.10;;
13432;SDS011;6789;47.678;9.158;2023-07-29T03:21:04;9.00;;;4.82;;
13432;SDS011;6789;47.678;9.158;2023-07-29T03:25:57;5.15;;;3.83;;
13432;SDS011;6789;47.678;9.158;2023-07-29T03:30:50;5.55;;;3.47;;
13432;SDS011;6789;47.678;9.158;2023-07-29T03:35:42;5.18;;;3.72;;
13432;SDS011;6789;47.678;9.158;2023-07-29T03:40:35;6.18;;;3.78;;
13432;SDS011;6789;47.678;9.158;2023-07-29T03:45:27;4.25;;;3.40;;
13432;SDS011;6789;47.678;9.158;2023-07-29T03:50:19;4.60;;;3.65;;
13432;SDS011;6789;47.678;9.158;2023-07-29T03:55:11;6.22;;;4.07;;
13432;SDS011;6789;47.678;9.158;2023-07-29T04:00:03;4.97;;;3.65;;
13432;SDS011;6789;47.678;9.158;2023-07-29T04:04:59;6.88;;;4.85;;
13432;SDS011;6789;47.678;9.158;2023-07-29T04:09:51;6.60;;;5.70;;
13432;SDS011;6789;47.678;9.158;2023-07-29T04:14:42;6.10;;;5.18;;
13432;SDS011;6789;47.678;9.158;2023-07-29T04:19:34;6.05;;;4.18;;
13432;SDS011;6789;47.678;9.158;2023-07-29T04:24:26;5.95;;;4.40;;
13432;SDS011;6789;47.678;9.158;2023-07-29T04:29:18;7.30;;;4.78;;
13432;SDS011;6789;47.678;9.158;2023-07-29T04:34:10;6.90;;;4.57;;
13432;SDS011;6789;47.678;9.158;2023-07-29T04:39:02;5.35;;;4.53;;
13432;SDS011;6789;47.678;9.158;2023-07-29T04:43:54;6.05;;;4.22;;
13432;SDS011;6789;47.678;9.158;2023-07-29T04:48:45;5.35;;;4.28;;
13432;SDS011;6789;47.678;9.158;2023-07-29T04:53:37;6.47;;;4.30;;
13432;SDS011;6789;47.678;9.158;2023-07-29T04:58:29;6.82;;;4.45;;
13432;SDS011;6789;47.678;9.158;2023-07-29T05:03:21;5.47;;;3.88;;
13432;SDS011;6789;47.678;9.158;2023-07-29T05:08:13;6.47;;;4.88;;
13432;SDS011;6789;47.678;9.158;2023-07-29T05:13:05;6.35;;;4.60;;
13432;SDS011;6789;47.678;9.158;2023-07-29T05:17:58;6.28;;;4.55;;
13432;SDS011;6789;47.678;9.158;2023-07-29T05:22:50;9.20;;;5.43;;
13432;SDS011;6789;47.678;9.158;2023-07-29T05:27:41;5.57;;;4.35;;
13432;SDS011;6789;47.678;9.158;2023-07-29T05:32:33;4.90;;;3.83;;
13432;SDS011;6789;47.678;9.158;2023-07-29T05:37:26;5.05;;;4.20;;
13432;SDS011;6789;47.678;9.158;2023-07-29T05:42:18;4.07;;;3.55;;
13432;SDS011;6789;47.678;9.158;2023-07-29T05:47:10;6.03;;;3.53;;
13432;SDS011;6789;47.678;9.158;2023-07-29T05:52:01;4.78;;;2.97;;
13432;SDS011;6789;47.678;9.158;2023-07-29T05:56:53;3.25;;;2.60;;
13432;SDS011;6789;47.678;9.158;2023-07-29T06:01:45;5.00;;;3.25;;
13432;SDS011;6789;47.678;9.158;2023-07-29T06:06:37;4.55;;;3.08;;
13432;SDS011;6789;47.678;9.158;2023-07-29T06:11:29;3.65;;;3.15;;
13432;SDS011;6789;47.678;9.158;2023-07-29T06:16:21;3.10;;;2.75;;
13432;SDS011;6789;47.678;9.158;2023-07-29T06:21:13;3.70;;;3.05;;
13432;SDS011;6789;47.678;9.158;2023-07-29T06:26:08;3.67;;;3.03;;
13432;SDS011;6789;47.678;9.158;2023-07-29T06:31:00;3.20;;;2.53;;
13432;SDS011;6789;47.678;9.158;2023-07-29T06:35:52;3.97;;;2.97;;
13432;SDS011;6789;47.678;9.158;2023-07-29T06:40:44;8.27;;;3.03;;
13432;SDS011;6789;47.678;9.158;2023-07-29T06:45:36;2.95;;;2.60;;
13432;SDS011;6789;47.678;9.158;2023-07-29T06:50:28;4.00;;;2.90;;
13432;SDS011;6789;47.678;9.158;2023-07-29T06:55:20;4.03;;;2.67;;
13432;SDS011;6789;47.678;9.158;2023-07-29T07:00:12;4.07;;;2.80;;
13432;SDS011;6789;47.678;9.158;2023-07-29T07:05:04;4.88;;;3.17;;
13432;SDS011;6789;47.678;9.158;2023-07-29T07:09:56;3.72;;;2.90;;
13432;SDS011;6789;47.678;9.158;2023-07-29T07:14:51;3.80;;;3.08;;
13432;SDS011;6789;47.678;9.158;2023-07-29T07:19:43;4.68;;;3.25;;
13432;SDS011;6789;47.678;9.158;2023-07-29T07:24:35;5.35;;;3.33;;
13432;SDS011;6789;47.678;9.158;2023-07-29T07:29:27;4.47;;;2.72;;
13432;SDS011;6789;47.678;9.158;2023-07-29T07:34:19;3.17;;;2.80;;
13432;SDS011;6789;47.678;9.158;2023-07-29T07:39:12;3.88;;;2.67;;
13432;SDS011;6789;47.678;9.158;2023-07-29T07:44:04;3.95;;;3.08;;
13432;SDS011;6789;47.678;9.158;2023-07-29T07:48:56;3.80;;;2.97;;
13432;SDS011;6789;47.678;9.158;2023-07-29T07:53:48;4.13;;;2.80;;
13432;SDS011;6789;47.678;9.158;2023-07-29T07:58:40;4.28;;;3.15;;
13432;SDS011;6789;47.678;9.158;2023-07-29T08:03:32;3.30;;;2.95;;
13432;SDS011;6789;47.678;9.158;2023-07-29T08:08:26;3.65;;;3.25;;
13432;SDS011;6789;47.678;9.158;2023-07-29T08:13:19;3.20;;;2.85;;
13432;SDS011;6789;47.678;9.158;2023-07-29T08:18:11;3.25;;;2.85;;
13432;SDS011;6789;47.678;9.158;2023-07-29T08:23:03;5.53;;;3.20;;
13432;SDS011;6789;47.678;9.158;2023-07-29T08:27:55;4.28;;;3.50;;
13432;SDS011;6789;47.678;9.158;2023-07-29T08:32:49;3.80;;;3.17;;
13432;SDS011;6789;47.678;9.158;2023-07-29T08:37:41;4.20;;;3.55;;
13432;SDS011;6789;47.678;9.158;2023-07-29T08:42:33;3.22;;;2.92;;
13432;SDS011;6789;47.678;9.158;2023-07-29T08:47:26;3.67;;;3.33;;
13432;SDS011;6789;47.678;9.158;2023-07-29T08:52:18;4.68;;;3.17;;
13432;SDS011;6789;47.678;9.158;2023-07-29T08:57:11;5.35;;;3.20;;
13432;SDS011;6789;47.678;9.158;2023-07-29T09:02:06;3.97;;;3.28;;
13432;SDS011;6789;47.678;9.158;2023-07-29T09:06:58;5.07;;;2.97;;
13432;SDS011;6789;47.678;9.158;2023-07-29T09:11:53;4.30;;;3.00;;
13432;SDS011;6789;47.678;9.158;2023-07-29T09:16:45;3.53;;;3.13;;
13432;SDS011;6789;47.678;9.158;2023-07-29T09:21:40;4.90;;;3.17;;
13432;SDS011;6789;47.678;9.158;2023-07-29T09:26:33;4.65;;;2.95;;
13432;SDS011;6789;47.678;9.158;2023-07-29T09:31:27;3.50;;;2.72;;
13432;SDS011;6789;47.678;9.158;2023-07-29T09:36:22;4.60;;;3.20;;
13432;SDS011;6789;47.678;9.158;2023-07-29T09:41:15;4.20;;;2.67;;
13432;SDS011;6789;47.678;9.158;2023-07-29T09:46:07;2.72;;;2.13;;
13432;SDS011;6789;47.678;9.158;2023-07-29T09:50:59;3.58;;;2.60;;
13432;SDS011;6789;47.678;9.158;2023-07-29T09:55:51;3.30;;;2.47;;
13432;SDS011;6789;47.678;9.158;2023-07-29T10:00:44;3.63;;;2.70;;
13432;SDS011;6789;47.678;9.158;2023-07-29T10:05:37;4.63;;;2.58;;
13432;SDS011;6789;47.678;9.158;2023-07-29T10:10:30;2.85;;;2.60;;
13432;SDS011;6789;47.678;9.158;2023-07-29T10:15:22;3.20;;;2.47;;
13432;SDS011;6789;47.678;9.158;2023-07-29T10:20:15;3.13;;;2.53;;
13432;SDS011;6789;47.678;9.158;2023-07-29T10:25:09;2.80;;;2.50;;
13432;SDS011;6789;47.678;9.158;2023-07-29T10:30:07;2.88;;;2.47;;
13432;SDS011;6789;47.678;9.158;2023-07-29T10:35:03;2.80;;;2.42;;
13432;SDS011;6789;47.678;9.158;2023-07-29T10:39:56;3.08;;;2.75;;
13432;SDS011;6789;47.678;9.158;2023-07-29T10:44:49;3.03;;;2.22;;
13432;SDS011;6789;47.678;9.158;2023-07-29T10:49:43;2.35;;;2.08;;
13432;SDS011;6789;47.678;9.158;2023-07-29T10:54:43;3.78;;;2.53;;
13432;SDS011;6789;47.678;9.158;2023-07-29T10:59:37;4.40;;;2.80;;
13432;SDS011;6789;47.678;9.158;2023-07-29T11:04:29;3.35;;;2.15;;
13432;SDS011;6789;47.678;9.158;2023-07-29T11:09:41;2.53;;;2.30;;
13432;SDS011;6789;47.678;9.158;2023-07-29T11:14:38;2.50;;;2.30;;
13432;SDS011;6789;47.678;9.158;2023-07-29T11:19:30;3.38;;;2.05;;
13432;SDS011;6789;47.678;9.158;2023-07-29T11:24:24;2.97;;;2.30;;
13432;SDS011;6789;47.678;9.158;2023-07-29T11:29:16;2.45;;;2.17;;
13432;SDS011;6789;47.678;9.158;2023-07-29T11:34:08;3.20;;;2.00;;
13432;SDS011;6789;47.678;9.158;2023-07-29T11:38:59;2.78;;;2.30;;
13432;SDS011;6789;47.678;9.158;2023-07-29T11:44:00;4.13;;;2.35;;
13432;SDS011;6789;47.678;9.158;2023-07-29T11:48:54;2.20;;;2.00;;
13432;SDS011;6789;47.678;9.158;2023-07-29T11:53:46;2.33;;;2.10;;
13432;SDS011;6789;47.678;9.158;2023-07-29T11:58:38;2.30;;;2.03;;
13432;SDS011;6789;47.678;9.158;2023-07-29T12:03:30;2.50;;;2.30;;
13432;SDS011;6789;47.678;9.158;2023-07-29T12:08:22;2.30;;;2.10;;
13432;SDS011;6789;47.678;9.158;2023-07-29T12:13:15;2.28;;;2.08;;
13432;SDS011;6789;47.678;9.158;2023-07-29T12:18:06;2.70;;;2.40;;
13432;SDS011;6789;47.678;9.158;2023-07-29T12:22:59;2.30;;;2.10;;
13432;SDS011;6789;47.678;9.158;2023-07-29T12:27:56;2.72;;;2.47;;
13432;SDS011;6789;47.678;9.158;2023-07-29T12:32:54;2.42;;;2.22;;
13432;SDS011;6789;47.678;9.158;2023-07-29T12:37:46;2.88;;;2.30;;
13432;SDS011;6789;47.678;9.158;2023-07-29T12:42:38;2.58;;;2.38;;
13432;SDS011;6789;47.678;9.158;2023-07-29T12:47:29;2.83;;;2.35;;
13432;SDS011;6789;47.678;9.158;2023-07-29T12:52:21;2.15;;;1.95;;
13432;SDS011;6789;47.678;9.158;2023-07-29T12:57:13;3.78;;;2.25;;
13432;SDS011;6789;47.678;9.158;2023-07-29T13:02:05;2.80;;;2.60;;
13432;SDS011;6789;47.678;9.158;2023-07-29T13:06:58;3.38;;;2.20;;
13432;SDS011;6789;47.678;9.158;2023-07-29T13:11:50;4.03;;;2.45;;
13432;SDS011;6789;47.678;9.158;2023-07-29T13:16:42;4.00;;;2.25;;
13432;SDS011;6789;47.678;9.158;2023-07-29T13:21:34;6.15;;;2.80;;
13432;SDS011;6789;47.678;9.158;2023-07-29T13:26:26;3.78;;;2.67;;
13432;SDS011;6789;47.678;9.158;2023-07-29T13:31:18;3.83;;;2.55;;
13432;SDS011;6789;47.678;9.158;2023-07-29T13:36:10;3.42;;;2.70;;
13432;SDS011;6789;47.678;9.158;2023-07-29T13:41:02;3.00;;;2.45;;
13432;SDS011;6789;47.678;9.158;2023-07-29T13:45:54;3.63;;;2.30;;
13432;SDS011;6789;47.678;9.158;2023-07-29T13:50:46;2.40;;;2.00;;
13432;SDS011;6789;47.678;9.158;2023-07-29T13:55:38;2.72;;;2.35;;
13432;SDS011;6789;47.678;9.158;2023-07-29T14:00:30;3.15;;;2.42;;
13432;SDS011;6789;47.678;9.158;2023-07-29T14:05:22;2.22;;;2.00;;
13432;SDS011;6789;47.678;9.158;2023-07-29T14:10:13;2.17;;;1.73;;
13432;SDS011;6789;47.678;9.158;2023-07-29T14:15:05;2.10;;;1.90;;
13432;SDS011;6789;47.678;9.158;2023-07-29T14:19:58;2.08;;;1.88;;
13432;SDS011;6789;47.678;9.158;2023-07-29T14:24:50;3.95;;;2.00;;
13432;SDS011;6789;47.678;9.158;2023-07-29T14:29:42;3.42;;;1.70;;
13432;SDS011;6789;47.678;9.158;2023-07-29T14:34:34;2.38;;;1.92;;
13432;SDS011;6789;47.678;9.158;2023-07-29T14:39:26;2.63;;;1.95;;
13432;SDS011;6789;47.678;9.158;2023-07-29T14:44:18;4.22;;;2.22;;
13432;SDS011;6789;47.678;9.158;2023-07-29T14:49:10;2.67;;;2.03;;
13432;SDS011;6789;47.678;9.158;2023-07-29T14:54:02;2.45;;;1.92;;
13432;SDS011;6789;47.678;9.158;2023-07-29T14:58:54;2.17;;;1.75;;
13432;SDS011;6789;47.678;9.158;2023-07-29T15:03:46;3.63;;;1.80;;
13432;SDS011;6789;47.678;9.158;2023-07-29T15:08:38;2.88;;;2.20;;
13432;SDS011;6789;47.678;9.158;2023-07-29T15:13:29;2.97;;;2.15;;
13432;SDS011;6789;47.678;9.158;2023-07-29T15:18:22;2.92;;;2.17;;
13432;SDS011;6789;47.678;9.158;2023-07-29T15:23:14;2.33;;;2.08;;
13432;SDS011;6789;47.678;9.158;2023-07-29T15:28:06;3.30;;;2.17;;
13432;SDS011;6789;47.678;9.158;2023-07-29T15:32:58;2.53;;;2.00;;
13432;SDS011;6789;47.678;9.158;2023-07-29T15:37:50;2.83;;;2.10;;
13432;SDS011;6789;47.678;9.158;2023-07-29T15:42:42;5.07;;;2.15;;
13432;SDS011;6789;47.678;9.158;2023-07-29T15:47:34;3.65;;;2.30;;
13432;SDS011;6789;47.678;9.158;2023-07-29T15:52:27;2.95;;;2.08;;
13432;SDS011;6789;47.678;9.158;2023-07-29T15:57:21;3.25;;;2.20;;
13432;SDS011;6789;47.678;9.158;2023-07-29T16:02:13;4.07;;;2.05;;
13432;SDS011;6789;47.678;9.158;2023-07-29T16:07:05;3.70;;;2.30;;
13432;SDS011;6789;47.678;9.158;2023-07-29T16:11:57;4.03;;;2.10;;
13432;SDS011;6789;47.678;9.158;2023-07-29T16:16:49;4.03;;;2.25;;
13432;SDS011;6789;47.678;9.158;2023-07-29T16:21:41;3.20;;;2.10;;
13432;SDS011;6789;47.678;9.158;2023-07-29T16:26:36;2.42;;;2.22;;
13432;SDS011;6789;47.678;9.158;2023-07-29T16:31:29;2.80;;;2.45;;
13432;SDS011;6789;47.678;9.158;2023-07-29T16:36:20;3.78;;;2.47;;
13432;SDS011;6789;47.678;9.158;2023-07-29T16:41:12;2.80;;;2.50;;
13432;SDS011;6789;47.678;9.158;2023-07-29T16:46:09;3.50;;;3.08;;
13432;SDS011;6789;47.678;9.158;2023-07-29T16:51:01;3.17;;;2.88;;
13432;SDS011;6789;47.678;9.158;2023-07-29T16:55:54;5.80;;;3.75;;
13432;SDS011;6789;47.678;9.158;2023-07-29T17:00:46;6.00;;;3.47;;
13432;SDS011;6789;47.678;9.158;2023-07-29T17:05:38;4.82;;;4.30;;
13432;SDS011;6789;47.678;9.158;2023-07-29T17:10:31;5.25;;;3.05;;
13432;SDS011;6789;47.678;9.158;2023-07-29T17:15:23;5.68;;;3.42;;
13432;SDS011;6789;47.678;9.158;2023-07-29T17:20:15;3.22;;;2.50;;
13432;SDS011;6789;47.678;9.158;2023-07-29T17:25:09;3.08;;;2.42;;
13432;SDS011;6789;47.678;9.158;2023-07-29T17:30:02;2.75;;;2.47;;
13432;SDS011;6789;47.678;9.158;2023-07-29T17:34:54;3.65;;;2.50;;
13432;SDS011;6789;47.678;9.158;2023-07-29T17:39:45;3.50;;;2.47;;
13432;SDS011;6789;47.678;9.158;2023-07-29T17:44:37;4.18;;;2.53;;
13432;SDS011;6789;47.678;9.158;2023-07-29T17:49:29;4.40;;;2.30;;
13432;SDS011;6789;47.678;9.158;2023-07-29T17:54:21;2.30;;;2.08;;
13432;SDS011;6789;47.678;9.158;2023-07-29T17:59:13;2.65;;;2.45;;
13432;SDS011;6789;47.678;9.158;2023-07-29T18:04:04;3.65;;;2.90;;
13432;SDS011;6789;47.678;9.158;2023-07-29T18:08:57;4.18;;;2.80;;
13432;SDS011;6789;47.678;9.158;2023-07-29T18:13:49;2.65;;;2.42;;
13432;SDS011;6789;47.678;9.158;2023-07-29T18:18:40;2.58;;;2.25;;
13432;SDS011;6789;47.678;9.158;2023-07-29T18:23:32;2.60;;;2.30;;
13432;SDS011;6789;47.678;9.158;2023-07-29T18:28:24;2.55;;;2.17;;
13432;SDS011;6789;47.678;9.158;2023-07-29T18:33:16;3.55;;;2.83;;
13432;SDS011;6789;47.678;9.158;2023-07-29T18:38:08;2.38;;;2.05;;
13432;SDS011;6789;47.678;9.158;2023-07-29T18:43:00;4.30;;;2.30;;
13432;SDS011;6789;47.678;9.158;2023-07-29T18:47:52;2.60;;;2.40;;
13432;SDS011;6789;47.678;9.158;2023-07-29T18:52:44;2.75;;;2.20;;
13432;SDS011;6789;47.678;9.158;2023-07-29T18:57:36;3.33;;;2.05;;
13432;SDS011;6789;47.678;9.158;2023-07-29T19:02:28;4.00;;;2.22;;
13432;SDS011;6789;47.678;9.158;2023-07-29T19:07:20;4.40;;;2.17;;
13432;SDS011;6789;47.678;9.158;2023-07-29T19:12:12;2.38;;;2.17;;
13432;SDS011;6789;47.678;9.158;2023-07-29T19:17:04;2.97;;;2.10;;
13432;SDS011;6789;47.678;9.158;2023-07-29T19:21:56;4.63;;;2.25;;
13432;SDS011;6789;47.678;9.158;2023-07-29T19:26:50;2.75;;;2.00;;
13432;SDS011;6789;47.678;9.158;2023-07-29T19:31:44;2.58;;;2.03;;
13432;SDS011;6789;47.678;9.158;2023-07-29T19:36:36;2.20;;;1.88;;
13432;SDS011;6789;47.678;9.158;2023-07-29T19:41:28;2.40;;;2.00;;
13432;SDS011;6789;47.678;9.158;2023-07-29T19:46:20;3.95;;;2.13;;
13432;SDS011;6789;47.678;9.158;2023-07-29T19:51:29;2.25;;;1.92;;
13432;SDS011;6789;47.678;9.158;2023-07-29T19:56:22;3.05;;;2.10;;
13432;SDS011;6789;47.678;9.158;2023-07-29T20:01:14;2.08;;;1.85;;
13432;SDS011;6789;47.678;9.158;2023-07-29T20:06:06;2.08;;;1.88;;
13432;SDS011;6789;47.678;9.158;2023-07-29T20:10:58;2.00;;;1.80;;
13432;SDS011;6789;47.678;9.158;2023-07-29T20:15:51;4.13;;;2.03;;
13432;SDS011;6789;47.678;9.158;2023-07-29T20:20:44;2.30;;;1.85;;
13432;SDS011;6789;47.678;9.158;2023-07-29T20:25:36;1.90;;;1.70;;
13432;SDS011;6789;47.678;9.158;2023-07-29T20:30:28;2.92;;;1.90;;
13432;SDS011;6789;47.678;9.158;2023-07-29T20:35:23;2.58;;;2.15;;
13432;SDS011;6789;47.678;9.158;2023-07-29T20:40:15;2.80;;;2.17;;
13432;SDS011;6789;47.678;9.158;2023-07-29T20:45:08;2.20;;;1.80;;
13432;SDS011;6789;47.678;9.158;2023-07-29T20:50:00;3.90;;;2.90;;
13432;SDS011;6789;47.678;9.158;2023-07-29T20:54:52;2.22;;;2.03;;
13432;SDS011;6789;47.678;9.158;2023-07-29T20:59:51;2.55;;;2.25;;
13432;SDS011;6789;47.678;9.158;2023-07-29T21:04:43;3.42;;;1.95;;
13432;SDS011;6789;47.678;9.158;2023-07-29T21:09:35;2.60;;;2.33;;
13432;SDS011;6789;47.678;9.158;2023-07-29T21:14:27;2.97;;;2.45;;
13432;SDS011;6789;47.678;9.158;2023-07-29T21:19:19;7.15;;;2.50;;
13432;SDS011;6789;47.678;9.158;2023-07-29T21:24:11;2.25;;;1.83;;
13432;SDS011;6789;47.678;9.158;2023-07-29T21:29:05;3.30;;;2.08;;
13432;SDS011;6789;47.678;9.158;2023-07-29T21:34:00;2.55;;;2.10;;
13432;SDS011;6789;47.678;9.158;2023-07-29T21:38:52;3.13;;;2.22;;
13432;SDS011;6789;47.678;9.158;2023-07-29T21:43:44;3.65;;;1.70;;
13432;SDS011;6789;47.678;9.158;2023-07-29T21:48:36;2.17;;;1.98;;
13432;SDS011;6789;47.678;9.158;2023-07-29T21:53:27;2.47;;;2.10;;
13432;SDS011;6789;47.678;9.158;2023-07-29T21:58:19;3.05;;;2.08;;
13432;SDS011;6789;47.678;9.158;2023-07-29T22:03:12;3.90;;;2.60;;
13432;SDS011;6789;47.678;9.158;2023-07-29T22:08:03;3.40;;;2.75;;
13432;SDS011;6789;47.678;9.158;2023-07-29T22:12:55;4.38;;;3.22;;
13432;SDS011;6789;47.678;9.158;2023-07-29T22:17:47;3.53;;;2.75;;
13432;SDS011;6789;47.678;9.158;2023-07-29T22:22:40;3.45;;;2.92;;
13432;SDS011;6789;47.678;9.158;2023-07-29T22:27:32;3.92;;;3.10;;
13432;SDS011;6789;47.678;9.158;2023-07-29T22:32:24;3.67;;;2.80;;
13432;SDS011;6789;47.678;9.158;2023-07-29T22:37:16;4.60;;;2.65;;
13432;SDS011;6789;47.678;9.158;2023-07-29T22:42:08;6.28;;;2.80;;
13432;SDS011;6789;47.678;9.158;2023-07-29T22:47:00;4.22;;;3.30;;
13432;SDS011;6789;47.678;9.158;2023-07-29T22:51:52;6.00;;;3.70;;
13432;SDS011;6789;47.678;9.158;2023-07-29T22:56:43;4.38;;;2.95;;
13432;SDS011;6789;47.678;9.158;2023-07-29T23:01:35;6.00;;;3.13;;
13432;SDS011;6789;47.678;9.158;2023-07-29T23:06:27;4.15;;;3.28;;
13432;SDS011;6789;47.678;9.158;2023-07-29T23:11:19;3.33;;;2.60;;
13432;SDS011;6789;47.678;9.158;2023-07-29T23:16:11;3.17;;;2.20;;
13432;SDS011;6789;47.678;9.158;2023-07-29T23:21:04;2.63;;;2.30;;
13432;SDS011;6789;47.678;9.158;2023-07-29T23:25:55;2.88;;;2.03;;
13432;SDS011;6789;47.678;9.158;2023-07-29T23:30:47;2.30;;;2.10;;
13432;SDS011;6789;47.678;9.158;2023-07-29T23:35:39;2.92;;;2.10;;
13432;SDS011;6789;47.678;9.158;2023-07-29T23:40:31;2.92;;;1.75;;
13432;SDS011;6789;47.678;9.158;2023-07-29T23:45:22;2.33;;;1.92;;
13432;SDS011;6789;47.678;9.158;2023-07-29T23:50:14;2.47;;;2.25;;
13432;SDS011;6789;47.678;9.158;2023-07-29T23:55:06;3.90;;;2.10;;
13432;SDS011;6789;47.678;9.158;2023-07-29T23:59:59;2.60;;;2.40;;
